MMPR/PVR METAR and TAF weather

Enter ICAO airport designator
Station Type Date Time Source
MMPR METAR 2018/12/19 02:45 UTC NOAA

MMPR 190245Z 04003KT 15SM FEW270 22/20 A2993 RMK SLP136 52008 975 8/008


Station Type Date Time Source
MMPR Decoded METAR 2018/12/19 02:45 UTC NOAA

Puerto Vallarta / Lic, Mexico (MMPR) 20-41N 105-15W
Dec 18, 2018 - 09:45 PM EST / 2018.12.19 0245 UTC
Wind: from the NE (040 degrees) at 3 MPH (3 KT):0
Visibility: 15 mile(s):0
Sky conditions: mostly clear
Temperature: 71 F (22 C)
Dew Point: 68 F (20 C)
Relative Humidity: 88%
Pressure (altimeter): 29.93 in. Hg (1013 hPa)
Pressure tendency: 0.02 inches (0.8 hPa) higher than three hours ago
ob: MMPR 190245Z 04003KT 15SM FEW270 22/20 A2993 RMK SLP136 52008 975 8/008
cycle: 3

Station Type Date Time Source
MMPR TAF 2018/12/18 18:33 UTC NOAA

TAF MMPR 181632Z 1818/1924 34010KT P6SM BKN100 OVC250 TX28/1821Z TN18/1913Z
FM190000 00000KT P6SM BKN020
FM191500 30006KT P6SM SKC
BECMG 1918/1919 34010KT


Example: see airport list